createdAt,value
2018-12-31T00:00:40.095Z,2.32
2018-12-31T00:03:23.668Z,2.33
2018-12-31T00:06:14.619Z,2.33
2018-12-31T00:09:00.452Z,2.39
2018-12-31T00:11:51.406Z,2.35
2018-12-31T00:14:35.283Z,2.42
2018-12-31T00:17:26.249Z,2.36
2018-12-31T00:20:10.346Z,2.30
2018-12-31T00:23:01.396Z,2.40
2018-12-31T00:25:43.430Z,2.27
2018-12-31T00:28:27.402Z,2.37
2018-12-31T00:31:18.738Z,2.35
2018-12-31T00:34:04.122Z,2.31
2018-12-31T00:36:55.154Z,2.06
2018-12-31T00:39:38.459Z,2.31
2018-12-31T00:42:29.426Z,2.43
2018-12-31T00:45:12.870Z,2.51
2018-12-31T00:48:03.842Z,2.49
2018-12-31T00:50:47.197Z,2.37
2018-12-31T00:53:31.013Z,2.46
2018-12-31T00:56:22.289Z,2.45
2018-12-31T00:59:05.614Z,2.46
2018-12-31T01:01:56.579Z,2.48
2018-12-31T01:04:40.800Z,2.53
2018-12-31T01:07:32.066Z,2.44
2018-12-31T01:10:15.420Z,2.38
2018-12-31T01:13:06.380Z,2.40
2018-12-31T01:15:49.652Z,2.50
2018-12-31T01:18:40.680Z,2.44
2018-12-31T01:21:24.667Z,2.39
2018-12-31T01:24:15.633Z,2.49
2018-12-31T01:26:59.069Z,2.31
2018-12-31T01:29:43.030Z,2.33
2018-12-31T01:32:34.964Z,2.45
2018-12-31T01:35:19.049Z,2.45
2018-12-31T01:38:10.267Z,2.43
2018-12-31T01:40:54.496Z,2.43
2018-12-31T01:43:38.183Z,2.53
2018-12-31T01:46:29.148Z,2.37
2018-12-31T01:49:12.774Z,2.45
2018-12-31T01:52:03.794Z,2.43
2018-12-31T01:54:47.543Z,2.51
2018-12-31T01:57:38.484Z,2.45
2018-12-31T02:00:10.425Z,2.65
2018-12-31T02:03:01.682Z,2.59
2018-12-31T02:05:45.414Z,2.41
2018-12-31T02:08:36.360Z,2.52
2018-12-31T02:11:19.804Z,2.45
2018-12-31T02:14:10.765Z,2.45
2018-12-31T02:16:54.143Z,2.53
2018-12-31T02:19:45.096Z,2.58
2018-12-31T02:22:28.468Z,2.53
2018-12-31T02:25:19.425Z,2.56
2018-12-31T02:28:03.021Z,2.52
2018-12-31T02:30:35.093Z,2.58
2018-12-31T02:33:26.038Z,2.56
2018-12-31T02:36:09.517Z,2.60
2018-12-31T02:39:00.464Z,2.41
2018-12-31T02:41:45.561Z,2.42
2018-12-31T02:44:36.505Z,2.49
2018-12-31T02:47:20.547Z,2.59
2018-12-31T02:50:11.764Z,2.52
2018-12-31T02:52:55.770Z,2.55
2018-12-31T02:55:39.648Z,2.48
2018-12-31T02:58:30.602Z,2.46
2018-12-31T03:01:14.011Z,2.56
2018-12-31T03:04:05.996Z,2.53
2018-12-31T03:06:49.594Z,2.22
2018-12-31T03:09:40.548Z,2.46
2018-12-31T03:12:25.158Z,2.43
2018-12-31T03:15:16.201Z,2.43
2018-12-31T03:17:59.533Z,2.37
2018-12-31T03:20:50.519Z,2.37
2018-12-31T03:23:34.368Z,2.53
2018-12-31T03:26:25.349Z,2.57
2018-12-31T03:29:09.476Z,2.20
2018-12-31T03:31:53.151Z,2.43
2018-12-31T03:34:44.185Z,2.48
2018-12-31T03:37:28.265Z,2.50
2018-12-31T03:40:11.519Z,2.47
2018-12-31T03:43:02.579Z,2.45
2018-12-31T03:45:46.595Z,2.49
2018-12-31T03:48:37.646Z,2.48
2018-12-31T03:51:22.534Z,2.47
2018-12-31T03:54:13.577Z,2.48
2018-12-31T03:56:55.657Z,2.45
2018-12-31T03:59:46.693Z,2.09
2018-12-31T04:02:30.776Z,2.48
2018-12-31T04:05:21.890Z,2.52
2018-12-31T04:08:05.596Z,2.58
2018-12-31T04:10:56.746Z,2.44
2018-12-31T04:13:40.862Z,2.58
2018-12-31T04:22:37.175Z,2.46
2018-12-31T04:25:18.776Z,2.60
2018-12-31T04:28:09.323Z,2.58
2018-12-31T04:30:53.345Z,2.71
2018-12-31T04:33:44.386Z,2.58
2018-12-31T04:36:26.500Z,2.45
2018-12-31T04:39:17.537Z,2.60
2018-12-31T04:42:00.972Z,2.69
2018-12-31T04:44:52.011Z,2.56
2018-12-31T04:47:35.543Z,2.57
2018-12-31T04:50:26.519Z,2.71
2018-12-31T04:53:28.877Z,2.46
2018-12-31T04:56:19.915Z,2.11
2018-12-31T04:59:03.458Z,2.56
2018-12-31T05:01:54.505Z,2.54
2018-12-31T05:04:36.925Z,2.38
2018-12-31T05:07:29.055Z,2.49
2018-12-31T05:10:12.849Z,2.54
2018-12-31T05:12:56.573Z,2.60
2018-12-31T05:15:47.540Z,2.58
2018-12-31T05:18:31.542Z,2.62
2018-12-31T05:21:22.582Z,2.59
2018-12-31T05:24:05.898Z,2.67
2018-12-31T05:26:56.940Z,2.59
2018-12-31T05:29:40.221Z,2.58
2018-12-31T05:32:31.549Z,2.69
2018-12-31T05:35:15.642Z,2.69
2018-12-31T05:38:06.716Z,2.67
2018-12-31T05:40:50.711Z,2.72
2018-12-31T05:43:34.601Z,2.72
2018-12-31T05:46:25.562Z,2.71
2018-12-31T05:49:09.414Z,2.70
2018-12-31T05:55:03.062Z,2.70
2018-12-31T05:57:54.034Z,2.64
2018-12-31T06:00:38.627Z,2.73
2018-12-31T06:03:29.607Z,2.36
2018-12-31T06:06:13.447Z,2.73
2018-12-31T06:09:06.586Z,2.63
2018-12-31T06:11:50.029Z,2.73
2018-12-31T06:14:41.010Z,2.58
2018-12-31T06:17:24.436Z,2.74
2018-12-31T06:20:15.409Z,2.75
2018-12-31T06:22:59.039Z,2.57
2018-12-31T06:25:50.091Z,2.58
2018-12-31T06:28:34.144Z,2.75
2018-12-31T06:31:17.550Z,2.67
2018-12-31T06:34:01.122Z,2.74
2018-12-31T06:36:52.090Z,2.74
2018-12-31T06:39:35.910Z,2.71
2018-12-31T06:42:19.448Z,2.64
2018-12-31T06:45:10.496Z,2.72
2018-12-31T06:47:54.585Z,2.81
2018-12-31T06:50:45.572Z,2.81
2018-12-31T06:53:29.125Z,2.77
2018-12-31T06:56:20.190Z,2.66
2018-12-31T06:59:04.314Z,2.86
2018-12-31T07:01:47.587Z,2.80
2018-12-31T07:04:31.144Z,2.81
2018-12-31T07:07:22.182Z,2.75
2018-12-31T07:10:06.285Z,2.65
2018-12-31T07:12:57.344Z,2.79
2018-12-31T07:15:41.326Z,2.68
2018-12-31T07:18:32.371Z,2.83
2018-12-31T07:21:16.377Z,2.75
2018-12-31T07:24:07.361Z,2.80
2018-12-31T07:26:51.385Z,2.66
2018-12-31T07:29:42.371Z,2.85
2018-12-31T07:32:25.896Z,2.67
2018-12-31T07:35:16.884Z,2.80
2018-12-31T07:38:01.139Z,2.44
2018-12-31T07:40:44.633Z,2.85
2018-12-31T07:43:27.913Z,2.81
2018-12-31T07:46:11.459Z,2.92
2018-12-31T07:49:02.500Z,2.88
2018-12-31T07:51:45.825Z,2.85
2018-12-31T07:54:36.860Z,2.84
2018-12-31T07:57:20.235Z,2.86
2018-12-31T08:00:11.292Z,2.80
2018-12-31T08:02:55.302Z,2.79
2018-12-31T08:05:46.355Z,2.87
2018-12-31T08:08:30.451Z,2.91
2018-12-31T08:11:21.770Z,2.88
2018-12-31T08:14:03.857Z,2.84
2018-12-31T08:16:54.909Z,2.86
2018-12-31T08:19:38.794Z,2.93
2018-12-31T08:22:30.105Z,2.88
2018-12-31T08:25:13.741Z,2.86
2018-12-31T08:28:04.711Z,2.86
2018-12-31T08:30:46.901Z,2.76
2018-12-31T08:33:37.872Z,2.91
2018-12-31T08:36:21.848Z,2.96
2018-12-31T08:39:13.766Z,2.58
2018-12-31T08:41:58.144Z,2.94
2018-12-31T08:44:49.186Z,2.96
2018-12-31T08:47:32.551Z,2.94
2018-12-31T08:50:24.496Z,2.99
2018-12-31T08:53:07.802Z,2.98
2018-12-31T08:55:51.617Z,2.93
2018-12-31T09:01:45.185Z,2.72
2018-12-31T09:04:37.123Z,2.96
2018-12-31T09:07:20.538Z,2.98
2018-12-31T09:10:11.575Z,2.94
2018-12-31T09:12:55.036Z,2.95
2018-12-31T09:15:46.098Z,2.71
2018-12-31T09:18:29.522Z,2.89
2018-12-31T09:21:11.649Z,2.64
2018-12-31T09:24:02.739Z,2.94
2018-12-31T09:26:46.848Z,2.96
2018-12-31T09:29:37.818Z,2.97
2018-12-31T09:32:21.079Z,3.01
2018-12-31T09:35:12.122Z,2.65
2018-12-31T09:37:56.057Z,2.97
2018-12-31T09:40:40.182Z,3.04
2018-12-31T09:43:23.446Z,3.06
2018-12-31T09:46:07.243Z,2.99
2018-12-31T09:48:39.091Z,3.07
2018-12-31T09:51:22.753Z,3.12
2018-12-31T09:57:16.801Z,3.14
2018-12-31T10:00:08.482Z,2.78
2018-12-31T10:02:40.332Z,2.89
2018-12-31T10:05:12.172Z,3.11
2018-12-31T10:07:43.946Z,3.18
2018-12-31T10:10:15.791Z,3.15
2018-12-31T10:12:47.828Z,3.14
2018-12-31T10:15:19.676Z,3.22
2018-12-31T10:17:51.459Z,3.23
2018-12-31T10:20:23.234Z,3.30
2018-12-31T10:22:55.088Z,3.28
2018-12-31T10:25:27.103Z,3.31
2018-12-31T10:27:58.960Z,3.32
2018-12-31T10:30:30.750Z,3.25
2018-12-31T10:33:02.542Z,3.31
2018-12-31T10:35:34.380Z,3.31
2018-12-31T10:38:06.230Z,3.20
2018-12-31T10:40:38.093Z,3.25
2018-12-31T10:43:10.261Z,3.26
2018-12-31T10:45:42.097Z,3.29
2018-12-31T10:48:13.944Z,3.26
2018-12-31T10:50:45.775Z,3.27
2018-12-31T10:53:17.627Z,3.25
2018-12-31T10:55:49.642Z,3.18
2018-12-31T10:58:21.419Z,3.27
2018-12-31T11:00:53.338Z,3.30
2018-12-31T11:03:25.193Z,3.32
2018-12-31T11:05:57.027Z,3.31
2018-12-31T11:08:28.835Z,3.30
2018-12-31T11:11:00.615Z,3.32
2018-12-31T11:13:32.446Z,3.35
2018-12-31T11:16:04.369Z,3.37
2018-12-31T11:18:36.144Z,3.28
2018-12-31T11:21:07.996Z,3.36
2018-12-31T11:23:39.931Z,3.35
2018-12-31T11:26:11.700Z,3.36
2018-12-31T11:28:43.635Z,3.29
2018-12-31T11:31:15.751Z,3.32
2018-12-31T11:33:47.609Z,3.34
2018-12-31T11:36:19.457Z,3.36
2018-12-31T11:38:51.233Z,3.26
2018-12-31T11:41:23.164Z,3.35
2018-12-31T11:43:55.084Z,3.33
2018-12-31T11:46:26.859Z,3.38
2018-12-31T11:48:59.668Z,3.42
2018-12-31T11:51:31.529Z,3.19
2018-12-31T11:54:03.390Z,3.41
2018-12-31T11:56:35.301Z,3.35
2018-12-31T11:59:07.159Z,3.42
2018-12-31T12:01:39.001Z,3.47
2018-12-31T12:04:10.780Z,3.44
2018-12-31T12:06:42.621Z,3.47
2018-12-31T12:09:14.476Z,3.46
2018-12-31T12:11:46.388Z,3.34
2018-12-31T12:14:18.243Z,3.41
2018-12-31T12:16:50.338Z,3.44
2018-12-31T12:19:22.119Z,3.45
2018-12-31T12:21:54.030Z,3.40
2018-12-31T12:24:25.817Z,3.43
2018-12-31T12:26:57.656Z,3.45
2018-12-31T12:29:29.463Z,3.43
2018-12-31T12:32:01.423Z,3.44
2018-12-31T12:34:33.209Z,3.46
2018-12-31T12:37:05.387Z,3.44
2018-12-31T12:39:37.235Z,3.45
2018-12-31T12:42:09.602Z,3.45
2018-12-31T12:44:41.645Z,3.48
2018-12-31T12:47:13.488Z,3.48
2018-12-31T12:49:45.607Z,3.55
2018-12-31T12:52:17.379Z,3.56
2018-12-31T12:54:49.232Z,3.57
2018-12-31T12:57:21.001Z,3.54
2018-12-31T12:59:52.859Z,3.56
2018-12-31T13:02:24.630Z,3.56
2018-12-31T13:05:03.400Z,3.62
2018-12-31T13:07:30.064Z,3.63
2018-12-31T13:10:01.853Z,3.57
2018-12-31T13:12:33.691Z,3.56
2018-12-31T13:15:05.908Z,3.63
2018-12-31T13:17:37.681Z,3.63
2018-12-31T13:20:10.194Z,3.62
2018-12-31T13:22:41.963Z,3.67
2018-12-31T13:25:13.902Z,3.69
2018-12-31T13:27:45.830Z,3.71
2018-12-31T13:30:17.697Z,3.63
2018-12-31T13:32:49.810Z,3.70
2018-12-31T13:35:21.669Z,3.70
2018-12-31T13:37:53.435Z,3.75
2018-12-31T13:40:25.520Z,3.75
2018-12-31T13:42:57.366Z,3.69
2018-12-31T13:45:30.306Z,3.63
2018-12-31T13:48:02.306Z,3.65
2018-12-31T13:50:34.438Z,3.69
2018-12-31T13:53:06.354Z,3.72
2018-12-31T13:55:38.296Z,3.77
2018-12-31T13:58:10.079Z,3.68
2018-12-31T14:00:42.146Z,3.67
2018-12-31T14:03:17.376Z,3.79
2018-12-31T14:05:47.465Z,3.80
2018-12-31T14:08:19.569Z,3.77
2018-12-31T14:10:51.741Z,3.80
2018-12-31T14:13:23.521Z,3.77
2018-12-31T14:15:55.374Z,3.82
2018-12-31T14:18:27.222Z,3.75
2018-12-31T14:20:59.287Z,3.72
2018-12-31T14:23:31.094Z,3.68
2018-12-31T14:26:03.040Z,3.76
2018-12-31T14:28:35.068Z,3.67
2018-12-31T14:31:07.369Z,3.75
2018-12-31T14:33:39.218Z,3.79
2018-12-31T14:36:11.223Z,3.69
2018-12-31T14:38:42.996Z,3.76
2018-12-31T14:41:14.937Z,3.80
2018-12-31T14:43:46.980Z,3.85
2018-12-31T14:46:18.925Z,3.79
2018-12-31T14:48:50.824Z,3.77
2018-12-31T14:51:23.013Z,3.84
2018-12-31T14:53:54.855Z,3.77
2018-12-31T14:56:26.647Z,3.84
2018-12-31T14:58:58.567Z,3.73
2018-12-31T15:01:30.698Z,3.80
2018-12-31T15:04:02.616Z,3.82
2018-12-31T15:06:34.546Z,3.77
2018-12-31T15:09:08.106Z,3.63
2018-12-31T15:11:40.311Z,3.72
2018-12-31T15:14:12.154Z,3.79
2018-12-31T15:16:44.089Z,3.79
2018-12-31T15:19:15.944Z,3.81
2018-12-31T15:21:47.879Z,3.66
2018-12-31T15:24:19.715Z,3.60
2018-12-31T15:26:51.572Z,3.69
2018-12-31T15:29:23.752Z,3.75
2018-12-31T15:31:55.696Z,3.78
2018-12-31T15:34:28.611Z,3.72
2018-12-31T15:37:00.401Z,3.60
2018-12-31T15:39:32.326Z,3.71
2018-12-31T15:42:04.353Z,3.65
2018-12-31T15:44:36.385Z,3.75
2018-12-31T15:47:08.172Z,3.77
2018-12-31T15:49:40.038Z,3.72
2018-12-31T15:52:12.210Z,3.72
2018-12-31T15:54:44.230Z,3.71
2018-12-31T15:57:16.428Z,3.71
2018-12-31T15:59:48.268Z,3.75
2018-12-31T16:02:20.137Z,3.72
2018-12-31T16:04:52.266Z,3.69
2018-12-31T16:07:26.083Z,3.75
2018-12-31T16:09:57.907Z,3.75
2018-12-31T16:12:29.771Z,3.72
2018-12-31T16:15:02.010Z,3.74
2018-12-31T16:17:33.870Z,3.71
2018-12-31T16:20:06.073Z,3.69
2018-12-31T16:22:37.931Z,3.66
2018-12-31T16:25:10.133Z,3.61
2018-12-31T16:27:43.057Z,3.63
2018-12-31T16:30:14.974Z,3.61
2018-12-31T16:32:46.833Z,3.56
2018-12-31T16:35:18.600Z,3.66
2018-12-31T16:37:50.461Z,3.71
2018-12-31T16:40:22.313Z,3.75
2018-12-31T16:42:54.174Z,3.70
2018-12-31T16:45:26.104Z,3.65
2018-12-31T16:47:58.223Z,3.59
2018-12-31T16:50:30.076Z,3.77
2018-12-31T16:53:01.855Z,3.61
2018-12-31T16:55:34.167Z,3.63
2018-12-31T16:58:06.393Z,3.63
2018-12-31T17:00:38.249Z,3.66
2018-12-31T17:03:10.050Z,3.63
2018-12-31T17:05:41.816Z,3.81
2018-12-31T17:08:13.972Z,3.77
2018-12-31T17:10:45.825Z,3.78
2018-12-31T17:13:17.730Z,3.81
2018-12-31T17:15:49.504Z,3.77
2018-12-31T17:18:21.770Z,3.83
2018-12-31T17:20:53.615Z,3.90
2018-12-31T17:23:25.573Z,3.86
2018-12-31T17:25:57.425Z,3.83
2018-12-31T17:28:29.388Z,3.80
2018-12-31T17:31:01.236Z,3.67
2018-12-31T17:33:33.236Z,3.84
2018-12-31T17:36:05.163Z,3.77
2018-12-31T17:38:37.105Z,3.81
2018-12-31T17:41:09.565Z,3.92
2018-12-31T17:43:41.340Z,3.79
2018-12-31T17:46:13.492Z,3.74
2018-12-31T17:48:45.278Z,3.87
2018-12-31T17:51:17.136Z,3.83
2018-12-31T17:53:49.003Z,3.87
2018-12-31T17:56:20.931Z,3.83
2018-12-31T17:58:52.862Z,3.86
2018-12-31T18:01:24.706Z,3.91
2018-12-31T18:03:56.492Z,3.91
2018-12-31T18:06:28.274Z,3.91
2018-12-31T18:09:00.507Z,3.81
2018-12-31T18:11:34.107Z,3.84
2018-12-31T18:14:06.086Z,3.91
2018-12-31T18:16:37.868Z,3.83
2018-12-31T18:19:09.666Z,3.93
2018-12-31T18:21:42.241Z,3.75
2018-12-31T18:24:14.032Z,3.79
2018-12-31T18:26:45.878Z,3.85
2018-12-31T18:29:17.843Z,3.76
2018-12-31T18:31:49.969Z,3.84
2018-12-31T18:34:21.841Z,3.86
2018-12-31T18:36:53.767Z,3.97
2018-12-31T18:39:25.600Z,3.90
2018-12-31T18:41:57.419Z,3.85
2018-12-31T18:44:29.295Z,3.87
2018-12-31T18:47:01.219Z,3.89
2018-12-31T18:49:33.173Z,3.95
2018-12-31T18:52:05.096Z,3.93
2018-12-31T18:54:36.894Z,3.94
2018-12-31T18:57:09.416Z,3.92
2018-12-31T18:59:41.276Z,3.90
2018-12-31T19:02:13.056Z,3.99
2018-12-31T19:04:44.923Z,4.01
2018-12-31T19:07:16.769Z,4.04
2018-12-31T19:09:48.713Z,4.06
2018-12-31T19:12:20.635Z,3.99
2018-12-31T19:14:52.619Z,3.97
2018-12-31T19:17:24.465Z,3.99
2018-12-31T19:19:56.455Z,4.01
2018-12-31T19:22:28.379Z,4.05
2018-12-31T19:25:00.482Z,3.99
2018-12-31T19:27:32.255Z,4.06
2018-12-31T19:30:05.228Z,4.08
2018-12-31T19:32:37.021Z,4.06
2018-12-31T19:35:09.809Z,3.88
2018-12-31T19:37:41.670Z,4.00
2018-12-31T19:40:13.637Z,4.02
2018-12-31T19:42:45.595Z,4.03
2018-12-31T19:45:17.461Z,3.99
2018-12-31T19:47:49.575Z,4.04
2018-12-31T19:50:21.572Z,4.02
2018-12-31T19:52:53.454Z,3.94
2018-12-31T19:55:25.352Z,3.99
2018-12-31T19:57:57.233Z,4.06
2018-12-31T20:00:29.601Z,3.92
2018-12-31T20:03:01.522Z,4.03
2018-12-31T20:05:33.525Z,3.98
2018-12-31T20:08:05.665Z,3.98
2018-12-31T20:10:37.662Z,3.97
2018-12-31T20:13:09.948Z,3.88
2018-12-31T20:15:48.495Z,3.95
2018-12-31T20:18:15.510Z,4.07
2018-12-31T20:20:47.464Z,4.12
2018-12-31T20:23:19.348Z,3.99
2018-12-31T20:25:51.264Z,3.99
2018-12-31T20:28:23.153Z,3.92
2018-12-31T20:30:55.562Z,3.94
2018-12-31T20:33:27.450Z,3.97
2018-12-31T20:35:59.540Z,3.98
2018-12-31T20:38:31.633Z,4.00
2018-12-31T20:41:03.789Z,4.02
2018-12-31T20:43:36.012Z,4.09
2018-12-31T20:46:08.022Z,3.98
2018-12-31T20:48:39.978Z,4.07
2018-12-31T20:51:12.132Z,4.08
2018-12-31T20:53:44.113Z,4.01
2018-12-31T20:56:16.184Z,3.95
2018-12-31T20:58:48.157Z,3.88
2018-12-31T21:01:19.998Z,3.90
2018-12-31T21:03:52.500Z,4.02
2018-12-31T21:06:24.458Z,4.11
2018-12-31T21:08:56.414Z,4.05
2018-12-31T21:11:28.487Z,4.10
2018-12-31T21:14:00.518Z,4.12
2018-12-31T21:16:32.571Z,3.97
2018-12-31T21:19:04.517Z,3.90
2018-12-31T21:21:36.316Z,4.02
2018-12-31T21:24:09.634Z,3.96
2018-12-31T21:26:41.582Z,4.00
2018-12-31T21:29:13.718Z,3.95
2018-12-31T21:31:45.641Z,3.96
2018-12-31T21:34:17.523Z,4.00
2018-12-31T21:36:49.441Z,4.05
2018-12-31T21:39:21.306Z,3.95
2018-12-31T21:41:53.294Z,4.09
2018-12-31T21:44:25.178Z,3.99
2018-12-31T21:46:57.151Z,4.04
2018-12-31T21:49:29.119Z,3.95
2018-12-31T21:52:01.011Z,3.93
2018-12-31T21:54:33.060Z,4.07
2018-12-31T21:57:05.091Z,4.15
2018-12-31T21:59:37.051Z,4.15
2018-12-31T22:02:09.669Z,4.01
2018-12-31T22:04:41.611Z,3.95
2018-12-31T22:07:13.940Z,3.94
2018-12-31T22:09:45.893Z,3.96
2018-12-31T22:12:17.768Z,3.86
2018-12-31T22:14:49.964Z,3.90
2018-12-31T22:17:22.007Z,4.10
2018-12-31T22:19:53.814Z,4.03
2018-12-31T22:22:28.824Z,4.02
2018-12-31T22:25:00.784Z,4.13
2018-12-31T22:27:32.778Z,4.11
2018-12-31T22:30:05.414Z,4.06
2018-12-31T22:32:37.323Z,3.93
2018-12-31T22:35:09.639Z,4.00
2018-12-31T22:37:41.429Z,4.12
2018-12-31T22:40:13.400Z,4.00
2018-12-31T22:42:45.226Z,4.05
2018-12-31T22:45:17.104Z,3.95
2018-12-31T22:47:48.907Z,4.00
2018-12-31T22:50:21.123Z,3.94
2018-12-31T22:52:52.960Z,4.05
2018-12-31T22:55:24.840Z,4.00
2018-12-31T22:57:56.738Z,4.06
2018-12-31T23:00:31.324Z,4.04
2018-12-31T23:03:04.800Z,3.93
2018-12-31T23:05:39.912Z,3.95
2018-12-31T23:08:11.810Z,3.98
2018-12-31T23:10:44.914Z,3.98
2018-12-31T23:13:18.156Z,4.05
2018-12-31T23:15:50.188Z,4.08
2018-12-31T23:18:22.006Z,4.08
2018-12-31T23:20:55.361Z,4.03
2018-12-31T23:23:27.460Z,4.09
2018-12-31T23:25:59.458Z,3.96
2018-12-31T23:28:31.497Z,3.97
2018-12-31T23:31:03.476Z,3.98
2018-12-31T23:33:35.446Z,4.04
2018-12-31T23:36:07.413Z,4.03
2018-12-31T23:38:39.355Z,4.05
2018-12-31T23:41:11.534Z,3.91
2018-12-31T23:43:43.339Z,4.01
2018-12-31T23:46:15.154Z,3.97
2018-12-31T23:48:47.029Z,3.81
2018-12-31T23:51:19.214Z,3.89
2018-12-31T23:53:51.421Z,3.99
2018-12-31T23:56:23.294Z,3.88
2018-12-31T23:58:55.162Z,4.00
